Time;durP1;ratioP1;P1;durP2;ratioP2;P2;SDS_P1;SDS_P2;PMS_P1;PMS_P2;Temp;Humidity;BMP_temperature;BMP_pressure;BME280_temperature;BME280_humidity;BME280_pressure;Samples;Min_cycle;Max_cycle;Signal;HPM_P1;HPM_P2
2023/12/09 00:00:55;;;;;;;696.17;655.00;;;6.60;99.90;;;;;;5033758;28;20811;-66
2023/12/09 00:03:22;;;;;;;678.00;636.40;;;6.60;99.90;;;;;;5032984;28;20794;-66
2023/12/09 00:05:49;;;;;;;645.00;606.97;;;6.60;99.90;;;;;;5033719;28;20449;-66
2023/12/09 00:08:16;;;;;;;639.33;601.73;;;6.70;99.90;;;;;;5033229;28;20474;-66
2023/12/09 00:10:43;;;;;;;621.37;586.00;;;6.70;99.90;;;;;;5033601;28;20456;-66
2023/12/09 00:13:10;;;;;;;632.13;596.17;;;6.70;99.90;;;;;;5032882;28;20839;-66
2023/12/09 00:15:37;;;;;;;619.00;584.10;;;6.70;99.90;;;;;;5033612;28;20449;-66
2023/12/09 00:18:05;;;;;;;603.40;568.57;;;6.70;99.90;;;;;;5033644;28;20452;-66
2023/12/09 00:20:32;;;;;;;644.40;607.97;;;6.60;99.90;;;;;;5033588;28;20484;-66
2023/12/09 00:22:59;;;;;;;655.20;619.20;;;6.60;99.90;;;;;;5032367;28;20456;-66
2023/12/09 00:25:26;;;;;;;658.53;621.83;;;6.50;99.90;;;;;;5033495;28;20491;-66
2023/12/09 00:27:53;;;;;;;665.20;628.13;;;6.50;99.90;;;;;;5033494;28;20481;-66
2023/12/09 00:30:20;;;;;;;677.07;637.70;;;6.30;99.90;;;;;;5033515;28;20819;-66
2023/12/09 00:32:47;;;;;;;699.57;660.03;;;6.30;99.90;;;;;;5032134;28;20510;-66
2023/12/09 00:35:15;;;;;;;692.07;652.17;;;6.20;99.90;;;;;;5035603;28;20453;-66
2023/12/09 00:37:42;;;;;;;674.37;634.67;;;6.20;99.90;;;;;;5037349;28;20455;-66
2023/12/09 00:40:10;;;;;;;667.53;629.77;;;6.20;99.90;;;;;;5036973;28;20456;-66
2023/12/09 00:42:37;;;;;;;622.60;588.93;;;6.30;99.90;;;;;;5036148;28;20880;-66
2023/12/09 00:45:04;;;;;;;585.33;554.03;;;6.40;99.90;;;;;;5037197;28;20503;-66
2023/12/09 00:47:31;;;;;;;562.03;531.97;;;6.40;99.90;;;;;;5037152;28;20454;-66
2023/12/09 00:49:58;;;;;;;599.30;567.77;;;6.30;99.90;;;;;;5037054;28;20484;-66
2023/12/09 00:52:26;;;;;;;598.63;566.90;;;6.20;99.90;;;;;;5036211;28;20538;-66
2023/12/09 00:54:53;;;;;;;622.40;589.50;;;6.10;99.90;;;;;;5037822;28;20465;-66
2023/12/09 00:57:22;;;;;;;634.70;600.50;;;6.00;99.90;;;;;;5036965;28;20450;-66
2023/12/09 00:59:49;;;;;;;645.57;609.67;;;5.90;99.90;;;;;;5036886;28;20500;-66
2023/12/09 01:02:16;;;;;;;653.43;617.47;;;5.90;99.90;;;;;;5036199;28;20461;-66
2023/12/09 01:04:43;;;;;;;652.83;615.23;;;6.00;99.90;;;;;;5037763;28;20454;-66
2023/12/09 01:07:11;;;;;;;618.70;583.57;;;6.10;99.90;;;;;;5036485;28;20951;-66
2023/12/09 01:09:39;;;;;;;590.90;557.63;;;6.10;99.90;;;;;;5036679;28;20473;-66
2023/12/09 01:12:06;;;;;;;596.67;562.50;;;6.20;99.90;;;;;;5035861;28;20456;-66
2023/12/09 01:14:33;;;;;;;584.37;549.87;;;6.30;99.90;;;;;;5036693;28;20456;-66
2023/12/09 01:17:00;;;;;;;569.73;536.50;;;6.30;99.90;;;;;;5036536;28;20448;-66
2023/12/09 01:19:27;;;;;;;564.17;531.80;;;6.40;99.90;;;;;;5036547;28;20454;-66
2023/12/09 01:21:53;;;;;;;575.40;542.77;;;6.50;99.90;;;;;;5035990;28;20540;-66
2023/12/09 01:24:20;;;;;;;572.97;539.77;;;6.50;99.90;;;;;;5036421;28;20456;-66
2023/12/09 01:26:49;;;;;;;566.43;533.83;;;6.50;99.90;;;;;;5036097;28;20502;-66
2023/12/09 01:29:16;;;;;;;547.27;515.97;;;6.60;99.90;;;;;;5036294;28;20507;-66
2023/12/09 01:31:42;;;;;;;557.63;526.07;;;6.60;99.90;;;;;;5036577;28;20451;-66
2023/12/09 01:34:09;;;;;;;562.40;530.93;;;6.60;99.90;;;;;;5035974;28;20460;-66
2023/12/09 01:36:36;;;;;;;564.03;532.63;;;6.50;99.90;;;;;;5035890;28;20463;-66
2023/12/09 01:39:03;;;;;;;578.40;546.03;;;6.40;99.90;;;;;;5036699;28;20454;-66
2023/12/09 01:41:30;;;;;;;571.10;539.80;;;6.40;99.90;;;;;;5035812;28;20454;-66
2023/12/09 01:43:58;;;;;;;566.07;535.00;;;6.30;99.90;;;;;;5036265;28;20451;-66
2023/12/09 01:46:25;;;;;;;563.40;532.50;;;6.30;99.90;;;;;;5035813;28;20454;-66
2023/12/09 01:48:52;;;;;;;583.60;550.20;;;6.20;99.90;;;;;;5035942;28;20482;-66
2023/12/09 01:51:19;;;;;;;584.57;551.60;;;6.10;99.90;;;;;;5035791;28;20537;-66
2023/12/09 01:53:47;;;;;;;596.17;562.27;;;6.10;99.90;;;;;;5035150;28;20518;-66
2023/12/09 01:56:16;;;;;;;633.10;595.70;;;6.00;99.90;;;;;;5035915;28;20451;-66
2023/12/09 01:58:43;;;;;;;640.83;602.97;;;5.90;99.90;;;;;;5035564;28;20449;-66
2023/12/09 02:01:13;;;;;;;644.40;604.70;;;5.90;99.90;;;;;;5035832;28;20533;-66
2023/12/09 02:03:40;;;;;;;635.00;597.10;;;5.90;99.90;;;;;;5034494;28;20538;-66
2023/12/09 02:06:07;;;;;;;642.37;603.67;;;5.90;99.90;;;;;;5035422;28;20541;-66
2023/12/09 02:08:34;;;;;;;636.77;597.57;;;5.90;99.90;;;;;;5035283;28;20542;-66
2023/12/09 02:11:13;;;;;;;649.60;609.50;;;5.90;99.90;;;;;;5035337;28;20936;-66
2023/12/09 02:13:51;;;;;;;656.47;614.97;;;5.80;99.90;;;;;;5034588;28;20816;-66
2023/12/09 02:16:23;;;;;;;668.87;627.10;;;5.90;99.90;;;;;;5035253;28;20443;-66
2023/12/09 02:18:51;;;;;;;671.07;628.27;;;5.80;99.90;;;;;;5035151;28;20437;-66
2023/12/09 02:21:18;;;;;;;667.40;625.70;;;5.80;99.90;;;;;;5035259;28;20454;-66
2023/12/09 02:23:46;;;;;;;660.77;619.97;;;5.80;99.90;;;;;;5034729;28;20533;-66
2023/12/09 02:26:21;;;;;;;656.20;615.50;;;5.80;99.90;;;;;;5035306;28;20849;-66
2023/12/09 02:28:54;;;;;;;670.97;628.17;;;5.70;99.90;;;;;;5035000;28;20897;-66
2023/12/09 02:31:24;;;;;;;698.53;653.27;;;5.70;99.90;;;;;;5035071;28;20444;-66
2023/12/09 02:33:52;;;;;;;714.03;668.63;;;5.70;99.90;;;;;;5034313;28;20459;-66
2023/12/09 02:36:21;;;;;;;724.87;678.77;;;5.70;99.90;;;;;;5034829;28;20947;-66
2023/12/09 02:38:51;;;;;;;714.03;668.23;;;5.70;99.90;;;;;;5034689;28;20936;-66
2023/12/09 02:41:19;;;;;;;750.90;702.53;;;5.60;99.90;;;;;;5034574;28;20445;-66
2023/12/09 02:43:47;;;;;;;731.53;683.67;;;5.60;99.90;;;;;;5034778;28;20453;-66
2023/12/09 02:46:14;;;;;;;722.93;675.43;;;5.70;99.90;;;;;;5034929;28;20443;-66
2023/12/09 02:48:41;;;;;;;700.53;654.47;;;5.70;99.90;;;;;;5034511;28;20460;-66
2023/12/09 02:51:08;;;;;;;701.60;654.90;;;5.70;99.90;;;;;;5034832;28;20454;-66
2023/12/09 02:53:35;;;;;;;687.93;641.87;;;5.70;99.90;;;;;;5033730;28;20460;-66
2023/12/09 02:56:04;;;;;;;682.17;634.57;;;5.70;99.90;;;;;;5034436;28;20460;-66
2023/12/09 02:58:31;;;;;;;665.73;619.63;;;5.80;99.90;;;;;;5033731;28;21003;-66
2023/12/09 03:00:58;;;;;;;672.00;625.63;;;5.80;99.90;;;;;;5034325;28;20452;-66
2023/12/09 03:03:24;;;;;;;674.57;629.47;;;5.80;99.90;;;;;;5033531;28;20456;-66
2023/12/09 03:05:51;;;;;;;668.17;623.37;;;5.80;99.90;;;;;;5034558;28;20812;-66
2023/12/09 03:08:18;;;;;;;651.40;609.17;;;5.70;99.90;;;;;;5034111;28;20532;-66
2023/12/09 03:10:45;;;;;;;682.67;639.13;;;5.70;99.90;;;;;;5034299;28;20488;-66
2023/12/09 03:13:13;;;;;;;676.90;636.60;;;5.70;99.90;;;;;;5033476;28;20460;-66
2023/12/09 03:15:40;;;;;;;688.70;647.17;;;5.60;99.90;;;;;;5034087;28;20459;-66
2023/12/09 03:18:07;;;;;;;717.83;674.33;;;5.50;99.90;;;;;;5034351;28;20462;-66
2023/12/09 03:20:34;;;;;;;738.73;693.73;;;5.40;99.90;;;;;;5034343;28;20530;-66
2023/12/09 03:23:01;;;;;;;779.47;731.83;;;5.30;99.90;;;;;;5033511;28;20456;-66
2023/12/09 03:25:28;;;;;;;789.07;740.10;;;5.30;99.90;;;;;;5034251;28;20448;-66
2023/12/09 03:27:54;;;;;;;814.27;763.57;;;5.20;99.90;;;;;;5033931;28;20459;-66
2023/12/09 03:30:23;;;;;;;858.53;804.37;;;5.10;99.90;;;;;;5034092;28;20502;-66
2023/12/09 03:32:49;;;;;;;866.03;812.00;;;5.10;99.90;;;;;;5033081;28;20464;-66
2023/12/09 03:35:17;;;;;;;883.73;825.87;;;5.00;99.90;;;;;;5033829;28;20684;-66
2023/12/09 03:37:44;;;;;;;912.13;851.50;;;5.10;99.90;;;;;;5033784;28;20487;-66
2023/12/09 03:40:12;;;;;;;911.67;850.70;;;5.20;99.90;;;;;;5034015;28;20444;-66
2023/12/09 03:42:39;;;;;;;908.23;846.37;;;5.10;99.90;;;;;;5032732;28;20927;-66
2023/12/09 03:45:07;;;;;;;904.70;844.90;;;5.00;99.90;;;;;;5033985;28;20454;-66
2023/12/09 03:47:35;;;;;;;917.87;857.37;;;4.80;99.90;;;;;;5033956;28;20458;-66
2023/12/09 03:50:02;;;;;;;912.23;852.70;;;4.70;99.90;;;;;;5033808;28;20560;-66
2023/12/09 03:52:29;;;;;;;916.70;858.00;;;4.50;99.90;;;;;;5032803;28;20509;-66
2023/12/09 03:54:56;;;;;;;928.23;868.30;;;4.40;99.90;;;;;;5033501;28;20992;-66
2023/12/09 03:57:23;;;;;;;935.97;872.67;;;4.20;99.90;;;;;;5033496;28;20456;-66
2023/12/09 03:59:50;;;;;;;938.87;875.33;;;4.20;99.90;;;;;;5033777;28;20452;-66
2023/12/09 04:02:18;;;;;;;938.73;874.83;;;4.10;99.90;;;;;;5033019;28;20535;-66
2023/12/09 04:04:47;;;;;;;941.23;876.63;;;4.00;99.90;;;;;;5033489;28;20456;-66
2023/12/09 04:07:14;;;;;;;938.70;875.37;;;3.80;99.90;;;;;;5033717;28;20456;-66
2023/12/09 04:09:42;;;;;;;931.50;869.53;;;3.60;99.90;;;;;;5037099;28;20474;-66
2023/12/09 04:12:09;;;;;;;941.93;878.97;;;3.40;99.90;;;;;;5036861;28;20448;-66
2023/12/09 04:14:36;;;;;;;947.83;883.63;;;3.20;99.90;;;;;;5038244;28;20468;-66
2023/12/09 04:17:03;;;;;;;956.27;889.80;;;3.00;99.90;;;;;;5037748;28;20458;-66
2023/12/09 04:19:29;;;;;;;958.47;889.97;;;3.00;99.90;;;;;;5037664;28;20453;-66
2023/12/09 04:21:58;;;;;;;960.23;890.03;;;2.90;99.90;;;;;;5037098;28;20797;-66
2023/12/09 04:24:24;;;;;;;963.23;890.70;;;2.90;99.90;;;;;;5037047;28;20458;-66
2023/12/09 04:26:51;;;;;;;950.50;879.83;;;3.00;99.90;;;;;;5037588;28;20458;-66
2023/12/09 04:29:18;;;;;;;948.17;877.00;;;2.90;99.90;;;;;;5037457;28;20785;-66
2023/12/09 04:31:45;;;;;;;979.07;905.73;;;2.90;99.90;;;;;;5036876;28;20452;-66
2023/12/09 04:34:12;;;;;;;986.53;908.30;;;2.80;99.90;;;;;;5036884;28;20551;-66
2023/12/09 04:36:39;;;;;;;989.27;907.70;;;3.00;99.90;;;;;;5037427;28;20533;-66
2023/12/09 04:39:08;;;;;;;986.07;903.70;;;3.20;99.90;;;;;;5037328;28;20451;-66
2023/12/09 04:41:35;;;;;;;994.23;910.10;;;3.50;99.90;;;;;;5036924;28;20801;-67
2023/12/09 04:44:03;;;;;;;982.20;898.90;;;3.70;99.90;;;;;;5036616;28;21002;-66
2023/12/09 04:46:31;;;;;;;981.60;897.70;;;3.70;99.90;;;;;;5037156;28;20505;-66
2023/12/09 04:48:58;;;;;;;977.20;893.97;;;3.80;99.90;;;;;;5037154;28;20451;-66
2023/12/09 04:51:24;;;;;;;971.03;886.77;;;3.70;99.90;;;;;;5036727;28;20823;-66
2023/12/09 04:53:51;;;;;;;975.60;891.43;;;3.70;99.90;;;;;;5036397;28;20826;-66
2023/12/09 04:56:19;;;;;;;985.37;900.20;;;3.70;99.90;;;;;;5037003;28;20452;-67
2023/12/09 04:58:45;;;;;;;983.90;899.30;;;3.60;99.90;;;;;;5037799;28;20594;-66
2023/12/09 05:01:12;;;;;;;983.13;899.20;;;3.60;99.90;;;;;;5036925;28;20539;-66
2023/12/09 05:03:39;;;;;;;985.83;900.30;;;3.60;99.90;;;;;;5035964;28;20452;-66
2023/12/09 05:06:06;;;;;;;987.27;900.63;;;3.50;99.90;;;;;;5036852;28;20452;-66
2023/12/09 05:08:33;;;;;;;980.57;895.20;;;3.60;99.90;;;;;;5036765;28;20451;-66
2023/12/09 05:11:00;;;;;;;986.20;900.37;;;3.50;99.90;;;;;;5036651;28;20475;-66
2023/12/09 05:13:29;;;;;;;984.07;897.87;;;3.50;99.90;;;;;;5035549;28;20447;-66
2023/12/09 05:15:56;;;;;;;970.90;884.00;;;3.60;99.90;;;;;;5036655;28;20811;-66
2023/12/09 05:18:22;;;;;;;983.77;895.60;;;3.50;99.90;;;;;;5036621;28;20451;-66
2023/12/09 05:20:49;;;;;;;969.73;881.67;;;3.50;99.90;;;;;;5035881;28;20448;-66
2023/12/09 05:23:16;;;;;;;961.23;873.77;;;3.50;99.90;;;;;;5035279;28;20542;-66
2023/12/09 05:25:44;;;;;;;969.80;881.70;;;3.50;99.90;;;;;;5036221;28;20993;-66
2023/12/09 05:28:11;;;;;;;973.37;884.03;;;3.60;99.90;;;;;;5036164;28;21022;-66
2023/12/09 05:30:42;;;;;;;959.53;870.30;;;3.60;99.90;;;;;;5036087;28;20479;-66
2023/12/09 05:33:09;;;;;;;977.57;887.23;;;3.50;99.90;;;;;;5035288;28;20831;-66
2023/12/09 05:35:36;;;;;;;980.77;888.60;;;3.50;99.90;;;;;;5035983;28;20458;-66
2023/12/09 05:38:03;;;;;;;980.40;888.40;;;3.50;99.90;;;;;;5036304;28;20448;-66
2023/12/09 05:40:30;;;;;;;982.30;890.07;;;3.50;99.90;;;;;;5036240;28;20861;-66
2023/12/09 05:42:57;;;;;;;975.07;883.60;;;3.40;99.90;;;;;;5035199;28;20451;-66
2023/12/09 05:45:24;;;;;;;972.43;881.70;;;3.40;99.90;;;;;;5035864;28;20452;-66
2023/12/09 05:47:52;;;;;;;973.87;882.63;;;3.40;99.90;;;;;;5036113;28;20784;-66
2023/12/09 05:50:19;;;;;;;1011.43;918.67;;;3.40;99.90;;;;;;5036493;28;20487;-66
2023/12/09 05:52:46;;;;;;;990.97;898.23;;;3.30;99.90;;;;;;5035288;28;20454;-66
2023/12/09 05:55:16;;;;;;;1006.97;912.83;;;3.30;99.90;;;;;;5035272;28;20869;-66
2023/12/09 05:57:43;;;;;;;990.10;894.40;;;3.30;99.90;;;;;;5035941;28;20443;-66
2023/12/09 06:00:11;;;;;;;1008.67;912.40;;;3.40;99.90;;;;;;5035381;28;20458;-66
2023/12/09 06:02:40;;;;;;;994.97;898.90;;;3.40;99.90;;;;;;5034822;28;20998;-66
2023/12/09 06:05:08;;;;;;;989.67;893.50;;;3.60;99.90;;;;;;5035749;28;20459;-66
2023/12/09 06:07:35;;;;;;;973.60;879.80;;;3.60;99.90;;;;;;5035712;28;20837;-66
2023/12/09 06:10:02;;;;;;;961.00;866.80;;;3.70;99.90;;;;;;5035245;28;20487;-66
2023/12/09 06:12:29;;;;;;;953.57;856.47;;;3.80;99.90;;;;;;5034651;28;21204;-66
2023/12/09 06:14:56;;;;;;;957.90;860.97;;;3.90;99.90;;;;;;5035543;28;20447;-66
2023/12/09 06:17:22;;;;;;;976.63;878.87;;;3.90;99.90;;;;;;5035175;28;20958;-66
2023/12/09 06:19:49;;;;;;;975.10;876.67;;;4.00;99.90;;;;;;5035453;28;20452;-66
2023/12/09 06:22:18;;;;;;;977.40;878.80;;;4.10;99.90;;;;;;5034471;28;20448;-66
2023/12/09 06:24:45;;;;;;;988.30;890.53;;;4.10;99.90;;;;;;5035173;28;20456;-66
2023/12/09 06:27:12;;;;;;;990.00;892.13;;;4.20;99.90;;;;;;5035299;28;20478;-66
2023/12/09 06:29:39;;;;;;;986.50;888.93;;;4.10;99.90;;;;;;5035222;28;20459;-66
2023/12/09 06:32:06;;;;;;;1006.77;909.40;;;4.10;99.90;;;;;;5033254;28;20480;-66
2023/12/09 06:34:33;;;;;;;1002.60;905.30;;;4.10;99.90;;;;;;5034359;28;20509;-66
2023/12/09 06:37:00;;;;;;;1026.53;928.40;;;4.10;99.90;;;;;;5034811;28;20462;-66
2023/12/09 06:39:28;;;;;;;1024.03;926.40;;;4.10;99.90;;;;;;5035616;28;20480;-66
2023/12/09 06:41:55;;;;;;;1013.23;915.80;;;4.00;99.90;;;;;;5034385;28;20501;-66
2023/12/09 06:44:22;;;;;;;1008.07;910.30;;;4.00;99.90;;;;;;5034455;28;20462;-66
2023/12/09 06:46:49;;;;;;;1002.80;904.50;;;4.00;99.90;;;;;;5029229;28;20453;-66
2023/12/09 06:49:17;;;;;;;1021.83;921.93;;;3.90;99.90;;;;;;5014847;28;20453;-66
2023/12/09 06:51:44;;;;;;;1012.77;911.70;;;4.00;99.90;;;;;;5013630;28;20504;-66
2023/12/09 06:54:11;;;;;;;1021.97;921.60;;;4.00;99.90;;;;;;5013986;28;20456;-66
2023/12/09 06:56:40;;;;;;;1000.27;899.20;;;3.90;99.90;;;;;;5014520;28;20507;-65
2023/12/09 06:59:07;;;;;;;999.17;899.10;;;3.90;99.90;;;;;;5014399;28;20444;-65
2023/12/09 07:01:34;;;;;;;1006.53;905.23;;;4.00;99.90;;;;;;5014178;28;20449;-65
2023/12/09 07:04:04;;;;;;;1004.53;903.57;;;3.90;99.90;;;;;;5013678;28;20456;-65
2023/12/09 07:06:31;;;;;;;1018.00;914.60;;;3.90;99.90;;;;;;5014788;28;20544;-65
2023/12/09 07:09:01;;;;;;;985.47;883.97;;;3.90;99.90;;;;;;5014548;28;20449;-65
2023/12/09 07:11:35;;;;;;;973.80;871.80;;;3.90;99.90;;;;;;5014330;28;20485;-65
2023/12/09 07:14:03;;;;;;;1028.53;925.40;;;3.90;99.90;;;;;;5013727;28;20536;-65
2023/12/09 07:16:32;;;;;;;1006.60;905.23;;;4.00;99.90;;;;;;5014375;28;20543;-66
2023/12/09 07:18:59;;;;;;;1022.63;921.47;;;3.90;99.90;;;;;;5014385;28;20451;-65
2023/12/09 07:21:27;;;;;;;1024.03;922.00;;;4.00;99.90;;;;;;5014335;28;20519;-65
2023/12/09 07:23:55;;;;;;;1015.80;913.67;;;4.00;99.90;;;;;;5014197;28;20453;-65
2023/12/09 07:26:22;;;;;;;1029.00;927.20;;;4.00;99.90;;;;;;5014525;28;20456;-65
2023/12/09 07:28:49;;;;;;;1020.57;918.33;;;4.00;99.90;;;;;;5014185;28;20540;-65
2023/12/09 07:31:17;;;;;;;1024.13;922.40;;;3.90;99.90;;;;;;5014096;28;20473;-65
2023/12/09 07:33:45;;;;;;;1020.40;919.90;;;4.00;99.90;;;;;;5013546;28;20460;-65
2023/12/09 07:36:14;;;;;;;985.87;887.67;;;4.00;99.90;;;;;;5014378;28;20512;-65
2023/12/09 07:38:40;;;;;;;1015.57;916.07;;;4.00;99.90;;;;;;5014048;28;20946;-65
2023/12/09 07:41:07;;;;;;;1016.07;916.00;;;4.00;99.90;;;;;;5014226;28;20455;-65
2023/12/09 07:43:34;;;;;;;1009.73;910.33;;;4.00;99.90;;;;;;5013330;28;20449;-65
2023/12/09 07:46:01;;;;;;;1017.93;917.30;;;4.00;99.90;;;;;;5014235;28;20479;-65
2023/12/09 07:48:29;;;;;;;1021.00;920.20;;;4.10;99.90;;;;;;5014221;28;20449;-65
2023/12/09 07:50:56;;;;;;;1017.17;916.30;;;4.00;99.90;;;;;;5014089;28;20481;-65
2023/12/09 07:53:23;;;;;;;1026.97;925.27;;;4.00;99.90;;;;;;5012992;28;20455;-65
2023/12/09 07:55:50;;;;;;;1017.77;916.33;;;4.10;99.90;;;;;;5013824;28;20969;-62
2023/12/09 07:58:17;;;;;;;1023.23;920.57;;;4.10;99.90;;;;;;5014071;28;20451;-62
2023/12/09 08:00:44;;;;;;;1011.90;910.40;;;4.20;99.90;;;;;;5013784;28;20485;-63
2023/12/09 08:03:10;;;;;;;1006.20;904.07;;;4.30;99.90;;;;;;5011760;28;20449;-63
2023/12/09 08:05:40;;;;;;;1008.03;905.77;;;4.30;99.90;;;;;;5011682;28;20821;-63
2023/12/09 08:08:07;;;;;;;997.57;895.30;;;4.40;99.90;;;;;;5011585;28;20507;-63
2023/12/09 08:10:34;;;;;;;1001.40;899.70;;;4.50;99.90;;;;;;5011373;28;20453;-63
2023/12/09 08:13:03;;;;;;;1001.60;899.90;;;4.50;99.90;;;;;;5011232;28;20453;-63
2023/12/09 08:15:29;;;;;;;1016.80;913.93;;;4.50;99.90;;;;;;5011925;28;20454;-62
2023/12/09 08:17:57;;;;;;;1025.40;920.53;;;4.60;99.90;;;;;;5011594;28;20790;-63
2023/12/09 08:20:23;;;;;;;1000.57;898.30;;;4.70;99.90;;;;;;5011381;28;20453;-62
2023/12/09 08:22:52;;;;;;;1022.13;918.07;;;4.80;99.90;;;;;;5010927;28;20999;-62
2023/12/09 08:25:19;;;;;;;1015.43;912.73;;;4.80;99.90;;;;;;5011504;28;20464;-63
2023/12/09 08:27:46;;;;;;;972.43;870.53;;;4.90;99.90;;;;;;5011060;28;20455;-63
2023/12/09 08:30:13;;;;;;;970.73;870.67;;;4.90;99.90;;;;;;5011428;28;20463;-63
2023/12/09 08:32:41;;;;;;;960.20;859.90;;;5.00;99.90;;;;;;5008339;28;20484;-63
2023/12/09 08:35:09;;;;;;;966.10;866.70;;;5.00;99.90;;;;;;5011058;28;20963;-63
2023/12/09 08:37:36;;;;;;;967.77;868.60;;;5.10;99.90;;;;;;5010139;28;20462;-63
2023/12/09 08:40:10;;;;;;;960.50;861.80;;;5.20;99.90;;;;;;5010493;28;20972;-63
2023/12/09 08:42:38;;;;;;;951.40;854.20;;;5.20;99.90;;;;;;5010521;28;20507;-63
2023/12/09 08:45:06;;;;;;;957.47;860.70;;;5.30;99.90;;;;;;5010815;28;20452;-63
2023/12/09 08:47:33;;;;;;;966.07;870.27;;;5.40;99.90;;;;;;5010423;28;20457;-63
2023/12/09 08:50:00;;;;;;;953.20;859.80;;;5.40;99.90;;;;;;5009966;28;20822;-63
2023/12/09 08:52:26;;;;;;;959.43;866.90;;;5.50;99.90;;;;;;5010356;28;20572;-63
2023/12/09 08:54:54;;;;;;;943.00;852.87;;;5.60;99.90;;;;;;5010932;28;20457;-63
2023/12/09 08:57:22;;;;;;;948.87;860.20;;;5.70;99.90;;;;;;5024717;28;20456;-63
2023/12/09 08:59:49;;;;;;;963.30;875.30;;;5.70;99.90;;;;;;5034329;28;20678;-63
2023/12/09 09:02:15;;;;;;;953.80;868.33;;;5.80;99.90;;;;;;5034227;28;20457;-63
2023/12/09 09:04:43;;;;;;;957.47;873.63;;;5.90;99.90;;;;;;5033693;28;20554;-63
2023/12/09 09:07:10;;;;;;;971.13;890.80;;;5.90;99.90;;;;;;5033607;28;20458;-63
2023/12/09 09:09:39;;;;;;;961.37;880.80;;;6.00;99.90;;;;;;5033769;28;20486;-63
2023/12/09 09:12:06;;;;;;;965.80;887.93;;;6.10;99.90;;;;;;5033363;28;20536;-63
2023/12/09 09:14:36;;;;;;;960.07;885.57;;;6.10;99.90;;;;;;5033864;28;20454;-63
2023/12/09 09:17:03;;;;;;;954.20;882.40;;;6.20;99.90;;;;;;5033510;28;20485;-63
2023/12/09 09:19:30;;;;;;;945.97;878.27;;;6.30;99.90;;;;;;5033036;28;20466;-64
2023/12/09 09:21:57;;;;;;;936.63;871.10;;;6.30;99.90;;;;;;5033730;28;20445;-64
2023/12/09 09:24:24;;;;;;;921.13;858.30;;;6.30;99.90;;;;;;5036218;28;20809;-64
2023/12/09 09:26:51;;;;;;;904.10;844.57;;;6.40;99.90;;;;;;5036499;28;20448;-64
2023/12/09 09:29:18;;;;;;;894.03;836.03;;;6.40;99.90;;;;;;5036205;28;20454;-64
2023/12/09 09:31:46;;;;;;;869.80;814.40;;;6.40;99.90;;;;;;5035436;28;20479;-64
2023/12/09 09:34:13;;;;;;;882.90;827.40;;;6.50;99.90;;;;;;5035470;28;20469;-64
2023/12/09 09:36:45;;;;;;;851.70;799.50;;;6.50;99.90;;;;;;5035671;28;20459;-64
2023/12/09 09:39:12;;;;;;;799.17;750.23;;;6.60;99.90;;;;;;5035948;28;20186;-64
2023/12/09 09:41:51;;;;;;;708.50;667.30;;;6.70;99.90;;;;;;5032872;28;20445;-64
2023/12/09 09:44:22;;;;;;;660.60;625.77;;;6.70;99.90;;;;;;5017295;28;20487;-64
2023/12/09 09:46:55;;;;;;;647.97;613.93;;;6.80;99.90;;;;;;5016085;28;20920;-66
2023/12/09 09:49:24;;;;;;;658.33;623.93;;;6.90;99.90;;;;;;5016369;28;20440;-66
2023/12/09 09:51:54;;;;;;;614.80;582.70;;;6.90;99.90;;;;;;5015323;28;20491;-64
2023/12/09 09:54:22;;;;;;;537.00;510.80;;;7.00;99.90;;;;;;5015458;28;20456;-64
2023/12/09 09:56:50;;;;;;;538.03;511.37;;;7.00;99.90;;;;;;5027469;28;20463;-64
2023/12/09 09:59:17;;;;;;;503.10;479.00;;;7.10;99.90;;;;;;5020311;28;20448;-64
2023/12/09 10:01:45;;;;;;;505.10;481.23;;;7.10;99.90;;;;;;5018507;28;20448;-64
2023/12/09 10:04:13;;;;;;;496.93;473.23;;;7.10;99.90;;;;;;5013665;28;20452;-64
2023/12/09 10:06:42;;;;;;;463.80;441.93;;;7.10;99.90;;;;;;5013347;28;20454;-64
2023/12/09 10:09:09;;;;;;;449.43;428.80;;;7.10;99.90;;;;;;5013377;28;20458;-64
2023/12/09 10:11:36;;;;;;;458.87;436.77;;;7.10;99.90;;;;;;5024641;28;20479;-64
2023/12/09 10:14:03;;;;;;;455.57;433.67;;;7.20;99.90;;;;;;5033431;28;20474;-64
2023/12/09 10:16:30;;;;;;;449.67;427.00;;;7.30;99.90;;;;;;5033088;28;20530;-64
2023/12/09 10:18:58;;;;;;;434.23;412.73;;;7.40;99.90;;;;;;5033616;28;20475;-64
2023/12/09 10:21:26;;;;;;;397.17;378.83;;;7.60;99.90;;;;;;5033374;28;20448;-64
2023/12/09 10:23:53;;;;;;;404.13;384.63;;;7.80;99.90;;;;;;5032983;28;20448;-64
2023/12/09 10:26:20;;;;;;;365.33;349.20;;;7.90;99.90;;;;;;5033048;28;20449;-64
2023/12/09 10:28:47;;;;;;;331.20;317.37;;;8.20;99.90;;;;;;5032895;28;20544;-65
2023/12/09 10:31:14;;;;;;;305.73;293.53;;;8.40;99.90;;;;;;5033263;28;20459;-64
2023/12/09 10:33:42;;;;;;;259.33;248.73;;;8.50;99.90;;;;;;5032701;28;20462;-64
2023/12/09 10:36:10;;;;;;;252.60;242.80;;;8.70;99.90;;;;;;5032804;28;20938;-64
2023/12/09 10:38:42;;;;;;;170.80;164.27;;;8.70;99.90;;;;;;5032795;28;20461;-64
2023/12/09 10:41:12;;;;;;;124.37;119.17;;;8.80;99.90;;;;;;5033310;28;20490;-64
2023/12/09 10:43:39;;;;;;;119.50;114.40;;;8.90;99.90;;;;;;5032634;28;20456;-64
2023/12/09 10:46:06;;;;;;;108.10;103.63;;;9.00;99.90;;;;;;5032757;28;20692;-64
2023/12/09 10:48:33;;;;;;;76.63;72.80;;;9.00;99.90;;;;;;5032774;28;20455;-64
2023/12/09 10:51:01;;;;;;;42.47;40.17;;;9.00;99.90;;;;;;5032736;28;20493;-64
2023/12/09 10:53:30;;;;;;;39.93;37.17;;;8.90;99.90;;;;;;5032339;28;20479;-64
2023/12/09 10:55:59;;;;;;;37.83;35.10;;;8.80;99.90;;;;;;5032532;28;20544;-64
2023/12/09 10:58:27;;;;;;;44.40;42.40;;;8.70;99.90;;;;;;5032409;28;20459;-64
2023/12/09 11:00:57;;;;;;;53.10;50.00;;;8.70;99.90;;;;;;5032479;28;20457;-64
2023/12/09 11:03:25;;;;;;;76.73;72.60;;;8.60;99.90;;;;;;5032152;28;20449;-64
2023/12/09 11:05:54;;;;;;;101.83;97.43;;;8.50;99.90;;;;;;5032548;28;20457;-64
2023/12/09 11:08:23;;;;;;;116.83;112.13;;;8.50;99.90;;;;;;5032488;28;20453;-64
2023/12/09 11:10:50;;;;;;;155.53;149.40;;;8.40;99.90;;;;;;5032406;28;20456;-64
2023/12/09 11:13:20;;;;;;;176.53;169.57;;;8.40;99.90;;;;;;5031800;28;20493;-64
2023/12/09 11:15:47;;;;;;;203.50;195.73;;;8.50;99.90;;;;;;5032191;28;20880;-64
2023/12/09 11:18:17;;;;;;;159.67;153.77;;;8.60;99.90;;;;;;5031449;28;20491;-64
2023/12/09 11:20:45;;;;;;;142.57;137.60;;;8.60;99.90;;;;;;5032209;28;20447;-64
2023/12/09 11:23:13;;;;;;;182.57;175.97;;;8.70;99.90;;;;;;5031784;28;20918;-64
2023/12/09 11:25:42;;;;;;;207.93;198.97;;;8.70;99.90;;;;;;5032378;28;20520;-64
2023/12/09 11:28:11;;;;;;;199.93;192.50;;;8.70;99.90;;;;;;5032075;28;20458;-63
2023/12/09 11:30:41;;;;;;;233.30;224.90;;;8.60;99.90;;;;;;5032307;28;20461;-63
2023/12/09 11:33:08;;;;;;;246.60;238.03;;;8.60;99.90;;;;;;5031522;28;20493;-62
2023/12/09 11:35:36;;;;;;;251.57;242.93;;;8.50;99.90;;;;;;5031863;28;20459;-62
2023/12/09 11:38:06;;;;;;;257.73;248.37;;;8.50;99.90;;;;;;5031742;28;20515;-62
2023/12/09 11:40:33;;;;;;;306.53;295.57;;;8.40;99.90;;;;;;5031799;28;20879;-62
2023/12/09 11:43:03;;;;;;;338.57;326.40;;;8.50;99.90;;;;;;5031219;28;20527;-62
2023/12/09 11:45:30;;;;;;;380.57;366.70;;;8.50;99.90;;;;;;5032046;28;20451;-62
2023/12/09 11:48:01;;;;;;;450.67;433.77;;;8.50;99.90;;;;;;5031805;28;20491;-62
2023/12/09 11:50:29;;;;;;;518.80;502.37;;;8.50;99.90;;;;;;5031742;28;20952;-62
2023/12/09 11:52:56;;;;;;;553.17;535.53;;;8.50;99.90;;;;;;5031456;28;20516;-62
2023/12/09 11:55:23;;;;;;;665.50;642.13;;;8.60;99.90;;;;;;5031549;28;20459;-62
2023/12/09 11:57:50;;;;;;;670.70;647.30;;;8.70;99.90;;;;;;5031633;28;20452;-62
2023/12/09 12:00:18;;;;;;;706.60;680.37;;;8.80;99.90;;;;;;5031710;28;20793;-62
2023/12/09 12:02:47;;;;;;;646.47;623.97;;;8.90;99.90;;;;;;5031479;28;20534;-62
2023/12/09 12:05:15;;;;;;;620.90;600.27;;;8.90;99.90;;;;;;5031420;28;20546;-62
2023/12/09 12:07:42;;;;;;;622.37;602.27;;;8.80;99.90;;;;;;5031366;28;20457;-62
2023/12/09 12:10:10;;;;;;;600.20;581.03;;;8.80;99.90;;;;;;5031281;28;20451;-62
2023/12/09 12:12:37;;;;;;;635.53;614.93;;;8.90;99.90;;;;;;5031022;28;21017;-62
2023/12/09 12:15:06;;;;;;;656.20;634.30;;;8.80;99.90;;;;;;5031694;28;20529;-62
2023/12/09 12:17:39;;;;;;;682.53;659.23;;;8.80;99.90;;;;;;5031602;28;20449;-62